createdAt,value
2022-09-17T00:03:21.101Z,98719.78
2022-09-17T00:08:22.731Z,98717.28
2022-09-17T00:13:24.762Z,98718.97
2022-09-17T00:18:26.789Z,98733.03
2022-09-17T00:23:28.490Z,98721.03
2022-09-17T00:28:30.103Z,98717.31
2022-09-17T00:33:31.704Z,98724.56
2022-09-17T00:38:34.207Z,98719.47
2022-09-17T00:43:51.664Z,98724.84
2022-09-17T00:48:55.234Z,98721.91
2022-09-17T00:53:57.130Z,98717.81
2022-09-17T00:59:01.575Z,98716.13
2022-09-17T01:04:03.852Z,98710.13
2022-09-17T01:09:14.499Z,98715.31
2022-09-17T01:14:47.961Z,98710.56
2022-09-17T01:20:01.691Z,98711.97
2022-09-17T01:25:25.062Z,98701.84
2022-09-17T01:30:35.544Z,98696.47
2022-09-17T01:36:10.879Z,98710.97
2022-09-17T01:41:24.866Z,98713.00
2022-09-17T01:46:36.037Z,98707.22
2022-09-17T01:51:42.352Z,98719.88
2022-09-17T01:56:55.089Z,98719.22
2022-09-17T02:02:03.672Z,98724.22
2022-09-17T02:07:20.177Z,98720.28
2022-09-17T02:12:29.781Z,98719.66
2022-09-17T02:17:44.380Z,98711.38
2022-09-17T02:23:01.644Z,98714.69
2022-09-17T02:28:27.093Z,98708.88
2022-09-17T02:33:31.989Z,98723.59
2022-09-17T02:38:33.661Z,98715.31
2022-09-17T02:43:45.295Z,98720.25
2022-09-17T02:49:08.830Z,98707.00
2022-09-17T02:54:32.299Z,98712.19
2022-09-17T03:00:03.112Z,98712.78
2022-09-17T03:05:07.553Z,98716.78
2022-09-17T03:10:09.402Z,98717.56
2022-09-17T03:15:11.122Z,98705.75
2022-09-17T03:20:12.848Z,98705.31
2022-09-17T03:25:14.734Z,98709.63
2022-09-17T03:30:16.388Z,98715.66
2022-09-17T03:35:18.145Z,98712.97
2022-09-17T03:40:20.093Z,98710.72
2022-09-17T03:45:21.881Z,98724.38
2022-09-17T03:50:23.664Z,98730.59
2022-09-17T03:55:25.333Z,98724.75
2022-09-17T04:00:27.374Z,98729.53
2022-09-17T04:05:28.973Z,98731.78
2022-09-17T04:10:30.581Z,98733.66
2022-09-17T04:15:32.209Z,98746.72
2022-09-17T04:20:34.296Z,98752.69
2022-09-17T04:25:35.886Z,98741.50
2022-09-17T04:30:37.636Z,98740.03
2022-09-17T04:35:39.286Z,98727.78
2022-09-17T04:40:42.408Z,98738.78
2022-09-17T04:45:48.137Z,98733.78
2022-09-17T04:50:49.887Z,98733.72
2022-09-17T04:55:51.600Z,98733.09
2022-09-17T05:00:53.240Z,98738.91
2022-09-17T05:05:54.902Z,98748.41
2022-09-17T05:10:56.668Z,98749.72
2022-09-17T05:15:58.431Z,98748.38
2022-09-17T05:21:00.078Z,98756.69
2022-09-17T05:26:01.743Z,98759.19
2022-09-17T05:31:03.825Z,98764.59
2022-09-17T05:36:05.821Z,98760.44
2022-09-17T05:41:07.534Z,98751.38
2022-09-17T05:46:09.309Z,98766.88
2022-09-17T05:51:11.740Z,98770.06
2022-09-17T05:56:13.446Z,98761.75
2022-09-17T06:01:16.320Z,98760.22
2022-09-17T06:06:18.176Z,98769.28
2022-09-17T06:11:19.787Z,98765.38
2022-09-17T06:16:24.749Z,98760.78
2022-09-17T06:21:26.426Z,98771.53
2022-09-17T06:26:28.041Z,98759.94
2022-09-17T06:31:29.690Z,98771.91
2022-09-17T06:36:31.307Z,98774.41
2022-09-17T06:41:33.299Z,98767.56
2022-09-17T06:46:36.630Z,98775.38
2022-09-17T06:51:38.322Z,98771.88
2022-09-17T06:56:39.919Z,98777.84
2022-09-17T07:01:41.837Z,98761.91
2022-09-17T07:06:44.041Z,98768.63
2022-09-17T07:11:45.847Z,98769.44
2022-09-17T07:16:47.507Z,98780.16
2022-09-17T07:21:49.318Z,98784.69
2022-09-17T07:26:51.711Z,98779.69
2022-09-17T07:31:56.190Z,98791.75
2022-09-17T07:36:57.780Z,98791.16
2022-09-17T07:41:59.876Z,98799.09
2022-09-17T07:47:01.566Z,98814.50
2022-09-17T07:52:06.485Z,98827.41
2022-09-17T07:57:08.188Z,98833.03
2022-09-17T08:02:14.107Z,98842.78
2022-09-17T08:07:15.845Z,98852.75
2022-09-17T08:12:19.510Z,98851.94
2022-09-17T08:17:21.099Z,98855.25
2022-09-17T08:22:22.688Z,98851.72
2022-09-17T08:27:24.268Z,98862.72
2022-09-17T08:32:26.501Z,98867.47
2022-09-17T08:37:30.851Z,98874.75
2022-09-17T08:42:51.635Z,98888.66
2022-09-17T08:48:05.126Z,98895.28
2022-09-17T08:53:21.253Z,98883.31
2022-09-17T08:58:46.928Z,98880.50
2022-09-17T09:04:22.021Z,98876.09
2022-09-17T09:09:28.495Z,98878.84
2022-09-17T09:14:47.290Z,98889.31
2022-09-17T09:19:50.073Z,98879.94
2022-09-17T09:25:05.711Z,98867.66
2022-09-17T09:30:13.513Z,98883.94
2022-09-17T09:35:27.539Z,98899.75
2022-09-17T09:40:39.308Z,98893.63
2022-09-17T09:45:56.888Z,98887.72
2022-09-17T09:51:09.812Z,98890.88
2022-09-17T09:56:33.097Z,98887.47
2022-09-17T10:01:40.985Z,98884.03
2022-09-17T10:06:42.810Z,98885.75
2022-09-17T10:12:00.239Z,98893.84
2022-09-17T10:17:26.794Z,98898.94
2022-09-17T10:22:40.094Z,98908.41
2022-09-17T10:27:45.510Z,98911.84
2022-09-17T10:33:17.516Z,98900.97
2022-09-17T10:38:39.352Z,98921.22
2022-09-17T10:43:41.770Z,98902.50
2022-09-17T10:49:05.999Z,98895.06
2022-09-17T10:54:25.993Z,98899.53
2022-09-17T10:59:53.235Z,98896.34
2022-09-17T11:05:33.070Z,98895.53
2022-09-17T11:10:52.770Z,98894.97
2022-09-17T11:16:05.342Z,98906.66
2022-09-17T11:21:19.708Z,98898.81
2022-09-17T11:26:37.534Z,98874.69
2022-09-17T11:32:01.048Z,98872.84
2022-09-17T11:37:27.053Z,98880.44
2022-09-17T11:42:39.349Z,98898.31
2022-09-17T11:47:59.006Z,98919.78
2022-09-17T11:53:10.674Z,98926.81
2022-09-17T11:58:43.904Z,98914.59
2022-09-17T12:03:54.623Z,98913.31
2022-09-17T12:09:06.273Z,98914.59
2022-09-17T12:14:26.969Z,98897.31
2022-09-17T12:19:37.604Z,98894.72
2022-09-17T12:24:40.441Z,98886.19
2022-09-17T12:29:59.658Z,98890.47
2022-09-17T12:35:53.082Z,98889.69
2022-09-17T12:41:16.068Z,98867.63
2022-09-17T12:46:39.123Z,98873.66
2022-09-17T12:51:55.431Z,98859.69
2022-09-17T12:57:12.157Z,98851.16
2022-09-17T13:02:30.952Z,98843.81
2022-09-17T13:07:52.718Z,98838.16
2022-09-17T13:13:04.991Z,98830.47
2022-09-17T13:18:26.166Z,98860.91
2022-09-17T13:23:40.645Z,98874.59
2022-09-17T13:28:47.444Z,98874.50
2022-09-17T13:33:58.286Z,98857.44
2022-09-17T13:39:02.201Z,98854.66
2022-09-17T13:44:05.809Z,98856.69
2022-09-17T13:49:16.435Z,98849.66
2022-09-17T13:54:21.124Z,98842.34
2022-09-17T13:59:27.047Z,98847.50
2022-09-17T14:04:48.436Z,98839.03
2022-09-17T14:09:59.495Z,98830.50
2022-09-17T14:15:01.193Z,98823.94
2022-09-17T14:20:05.531Z,98820.97
2022-09-17T14:25:16.998Z,98812.94
2022-09-17T14:30:23.665Z,98809.81
2022-09-17T14:35:39.828Z,98823.06
2022-09-17T14:40:45.910Z,98813.75
2022-09-17T14:45:52.054Z,98821.09
2022-09-17T14:51:17.384Z,98820.66
2022-09-17T14:56:22.264Z,98805.38
2022-09-17T15:01:27.010Z,98802.66
2022-09-17T15:06:28.625Z,98796.16
2022-09-17T15:11:35.454Z,98786.09
2022-09-17T15:16:37.793Z,98778.38
2022-09-17T15:21:44.690Z,98785.66
2022-09-17T15:26:49.661Z,98775.66
2022-09-17T15:31:51.420Z,98791.38
2022-09-17T15:37:21.647Z,98793.44
2022-09-17T15:42:30.067Z,98799.88
2022-09-17T15:48:09.057Z,98806.25
2022-09-17T15:53:14.570Z,98805.09
2022-09-17T15:58:24.945Z,98809.41
2022-09-17T16:03:39.431Z,98814.94
2022-09-17T16:08:42.528Z,98810.72
2022-09-17T16:13:51.177Z,98799.91
2022-09-17T16:18:52.963Z,98799.38
2022-09-17T16:23:54.670Z,98799.34
2022-09-17T16:29:02.207Z,98788.38
2022-09-17T16:34:03.837Z,98795.53
2022-09-17T16:39:05.466Z,98798.78
2022-09-17T16:44:07.195Z,98805.03
2022-09-17T16:49:08.810Z,98813.78
2022-09-17T16:54:10.452Z,98826.50
2022-09-17T16:59:12.077Z,98841.88
2022-09-17T17:04:13.675Z,98837.31
2022-09-17T17:09:15.402Z,98836.31
2022-09-17T17:14:17.014Z,98829.69
2022-09-17T17:19:18.603Z,98827.63
2022-09-17T17:24:20.249Z,98832.63
2022-09-17T17:29:22.218Z,98844.88
2022-09-17T17:34:23.957Z,98855.25
2022-09-17T17:39:25.615Z,98860.84
2022-09-17T17:44:27.197Z,98867.47
2022-09-17T17:49:28.785Z,98871.59
2022-09-17T17:54:30.536Z,98876.13
2022-09-17T17:59:32.242Z,98883.78
2022-09-17T18:04:33.883Z,98885.19
2022-09-17T18:09:35.898Z,98888.81
2022-09-17T18:14:37.493Z,98895.19
2022-09-17T18:19:39.099Z,98902.78
2022-09-17T18:24:40.707Z,98897.75
2022-09-17T18:29:42.340Z,98890.47
2022-09-17T18:34:43.924Z,98889.16
2022-09-17T18:39:58.028Z,98895.78
2022-09-17T18:45:00.316Z,98899.41
2022-09-17T18:50:01.928Z,98898.97
2022-09-17T18:55:03.661Z,98904.97
2022-09-17T19:00:08.247Z,98907.88
2022-09-17T19:05:09.894Z,98900.47
2022-09-17T19:10:11.511Z,98909.00
2022-09-17T19:15:13.139Z,98913.03
2022-09-17T19:20:15.071Z,98905.81
2022-09-17T19:25:16.803Z,98905.78
2022-09-17T19:30:18.470Z,98904.34
2022-09-17T19:35:20.096Z,98899.63
2022-09-17T19:40:21.788Z,98903.38
2022-09-17T19:45:24.503Z,98905.59
2022-09-17T19:50:26.126Z,98904.56
2022-09-17T19:55:27.717Z,98890.16
2022-09-17T20:00:29.962Z,98879.75
2022-09-17T20:05:31.682Z,98896.84
2022-09-17T20:10:37.382Z,98900.44
2022-09-17T20:15:39.039Z,98906.09
2022-09-17T20:20:43.761Z,98911.56
2022-09-17T20:25:51.956Z,98906.41
2022-09-17T20:31:04.869Z,98893.75
2022-09-17T20:36:10.843Z,98894.13
2022-09-17T20:41:13.742Z,98893.22
2022-09-17T20:46:16.872Z,98887.66
2022-09-17T20:51:20.888Z,98887.75
2022-09-17T20:56:28.514Z,98874.28
2022-09-17T21:01:34.467Z,98873.06
2022-09-17T21:06:38.991Z,98866.47
2022-09-17T21:11:40.654Z,98864.44
2022-09-17T21:16:42.425Z,98873.22
2022-09-17T21:21:44.540Z,98870.16
2022-09-17T21:26:46.219Z,98878.22
2022-09-17T21:31:48.053Z,98866.25
2022-09-17T21:36:51.543Z,98870.66
2022-09-17T21:41:53.364Z,98866.78
2022-09-17T21:46:57.574Z,98871.97
2022-09-17T21:51:59.332Z,98869.50
2022-09-17T21:57:01.077Z,98868.03
2022-09-17T22:02:03.989Z,98868.22
2022-09-17T22:07:05.642Z,98869.81
2022-09-17T22:12:07.635Z,98874.91
2022-09-17T22:17:09.271Z,98863.84
2022-09-17T22:22:10.853Z,98863.22
2022-09-17T22:27:12.473Z,98859.88
2022-09-17T22:32:14.073Z,98851.44
2022-09-17T22:37:15.829Z,98833.50
2022-09-17T22:42:17.430Z,98839.50
2022-09-17T22:47:19.009Z,98846.81
2022-09-17T22:52:20.607Z,98850.06
2022-09-17T22:57:22.203Z,98845.69
2022-09-17T23:02:23.845Z,98846.81
2022-09-17T23:07:25.464Z,98850.13
2022-09-17T23:12:27.100Z,98847.75
2022-09-17T23:17:29.545Z,98853.38
2022-09-17T23:22:31.421Z,98845.50
2022-09-17T23:27:33.025Z,98846.69
2022-09-17T23:32:34.615Z,98844.31
2022-09-17T23:37:36.256Z,98823.72
2022-09-17T23:42:37.979Z,98830.44
2022-09-17T23:47:39.593Z,98820.44
2022-09-17T23:52:41.383Z,98822.28
2022-09-17T23:57:42.973Z,98820.88
